<?xml version="1.0" encoding="UTF-8" standalone="no" ?>
<gpx xmlns="http://www.topografix.com/GPX/1/1" xmlns:xsi="http://www.w3.org/2001/XMLSchema-instance" xsi:schemaLocation="http://www.topografix.com/GPX/1/1 http://www.topografix.com/GPX/1/1/gpx.xsd" version="1.1" creator="VisuGPX - https://www.visugpx.com">
  <metadata>
    <name>????-Rando des Sangliers 2018</name>
  </metadata>
  <trk>
    <name><![CDATA[8743371-Rando des Sangliers 2018]]></name>
    <trkseg>
      <trkpt lat="47.1522" lon="6.35214">
        <ele>652</ele>
        <time>2019-09-06T22:05:59Z</time>
      </trkpt>
      <trkpt lat="47.15198" lon="6.35215">
        <ele>652</ele>
        <time>2019-09-06T22:06:18Z</time>
      </trkpt>
      <trkpt lat="47.15126" lon="6.35201">
        <ele>656.7</ele>
        <time>2019-09-06T22:06:35Z</time>
      </trkpt>
      <trkpt lat="47.15127" lon="6.35231">
        <ele>657</ele>
        <time>2019-09-06T22:06:42Z</time>
      </trkpt>
      <trkpt lat="47.15143" lon="6.35336">
        <ele>657</ele>
        <time>2019-09-06T22:07:24Z</time>
      </trkpt>
      <trkpt lat="47.15129" lon="6.35376">
        <ele>657</ele>
        <time>2019-09-06T22:07:40Z</time>
      </trkpt>
      <trkpt lat="47.15128" lon="6.3541">
        <ele>656.8</ele>
        <time>2019-09-06T22:07:49Z</time>
      </trkpt>
      <trkpt lat="47.15128" lon="6.35461">
        <ele>655.8</ele>
        <time>2019-09-06T22:08:12Z</time>
      </trkpt>
      <trkpt lat="47.15123" lon="6.35484">
        <ele>656</ele>
        <time>2019-09-06T22:08:25Z</time>
      </trkpt>
      <trkpt lat="47.1509" lon="6.35567">
        <ele>657.7</ele>
        <time>2019-09-06T22:08:43Z</time>
      </trkpt>
      <trkpt lat="47.15061" lon="6.35611">
        <ele>661</ele>
        <time>2019-09-06T22:09:17Z</time>
      </trkpt>
      <trkpt lat="47.15015" lon="6.35683">
        <ele>664</ele>
        <time>2019-09-06T22:13:30Z</time>
      </trkpt>
      <trkpt lat="47.15" lon="6.35707">
        <ele>667.8</ele>
        <time>2019-09-06T22:13:56Z</time>
      </trkpt>
      <trkpt lat="47.15006" lon="6.35729">
        <ele>665</ele>
        <time>2019-09-06T22:14:00Z</time>
      </trkpt>
      <trkpt lat="47.15084" lon="6.35822">
        <ele>664</ele>
        <time>2019-09-06T22:14:08Z</time>
      </trkpt>
      <trkpt lat="47.15131" lon="6.35866">
        <ele>665</ele>
        <time>2019-09-06T22:15:30Z</time>
      </trkpt>
      <trkpt lat="47.15157" lon="6.35908">
        <ele>666</ele>
        <time>2019-09-06T22:16:36Z</time>
      </trkpt>
      <trkpt lat="47.15178" lon="6.35955">
        <ele>668</ele>
        <time>2019-09-06T22:16:54Z</time>
      </trkpt>
      <trkpt lat="47.15254" lon="6.36134">
        <ele>680</ele>
        <time>2019-09-06T22:17:00Z</time>
      </trkpt>
      <trkpt lat="47.15273" lon="6.36185">
        <ele>675.6</ele>
        <time>2019-09-06T22:17:14Z</time>
      </trkpt>
      <trkpt lat="47.15277" lon="6.36225">
        <ele>674.5</ele>
        <time>2019-09-06T22:17:30Z</time>
      </trkpt>
      <trkpt lat="47.15266" lon="6.36271">
        <ele>675.4</ele>
        <time>2019-09-06T22:17:46Z</time>
      </trkpt>
      <trkpt lat="47.15265" lon="6.363">
        <ele>675.2</ele>
        <time>2019-09-06T22:18:55Z</time>
      </trkpt>
      <trkpt lat="47.15272" lon="6.36325">
        <ele>675.6</ele>
        <time>2019-09-06T22:19:05Z</time>
      </trkpt>
      <trkpt lat="47.15279" lon="6.36346">
        <ele>677</ele>
        <time>2019-09-06T22:21:20Z</time>
      </trkpt>
      <trkpt lat="47.15313" lon="6.3638">
        <ele>676.4</ele>
        <time>2019-09-06T22:21:24Z</time>
      </trkpt>
      <trkpt lat="47.15337" lon="6.3642">
        <ele>677.7</ele>
        <time>2019-09-06T22:21:36Z</time>
      </trkpt>
      <trkpt lat="47.1538" lon="6.36529">
        <ele>682.9</ele>
        <time>2019-09-06T22:22:32Z</time>
      </trkpt>
      <trkpt lat="47.15416" lon="6.36636">
        <ele>684.1</ele>
        <time>2019-09-06T22:22:41Z</time>
      </trkpt>
      <trkpt lat="47.1538" lon="6.36607">
        <ele>683.9</ele>
        <time>2019-09-06T22:22:45Z</time>
      </trkpt>
      <trkpt lat="47.15362" lon="6.36653">
        <ele>683.5</ele>
        <time>2019-09-06T22:23:06Z</time>
      </trkpt>
      <trkpt lat="47.15332" lon="6.36684">
        <ele>684</ele>
        <time>2019-09-06T22:23:18Z</time>
      </trkpt>
      <trkpt lat="47.1534" lon="6.36702">
        <ele>682.1</ele>
        <time>2019-09-06T22:25:58Z</time>
      </trkpt>
      <trkpt lat="47.15287" lon="6.36746">
        <ele>684.8</ele>
        <time>2019-09-06T22:26:14Z</time>
      </trkpt>
      <trkpt lat="47.15244" lon="6.36783">
        <ele>688.1</ele>
        <time>2019-09-06T22:26:29Z</time>
      </trkpt>
      <trkpt lat="47.15226" lon="6.36799">
        <ele>688.1</ele>
        <time>2019-09-06T22:27:35Z</time>
      </trkpt>
      <trkpt lat="47.15171" lon="6.36839">
        <ele>688.9</ele>
        <time>2019-09-06T22:28:29Z</time>
      </trkpt>
      <trkpt lat="47.15115" lon="6.36877">
        <ele>690.4</ele>
        <time>2019-09-06T22:30:08Z</time>
      </trkpt>
      <trkpt lat="47.15079" lon="6.369">
        <ele>692.6</ele>
        <time>2019-09-06T22:32:23Z</time>
      </trkpt>
      <trkpt lat="47.15018" lon="6.36945">
        <ele>693.8</ele>
        <time>2019-09-06T22:32:35Z</time>
      </trkpt>
      <trkpt lat="47.1499" lon="6.36967">
        <ele>695.7</ele>
        <time>2019-09-06T22:32:39Z</time>
      </trkpt>
      <trkpt lat="47.14977" lon="6.36995">
        <ele>695.4</ele>
        <time>2019-09-06T22:32:48Z</time>
      </trkpt>
      <trkpt lat="47.1494" lon="6.37058">
        <ele>696.6</ele>
        <time>2019-09-06T22:33:03Z</time>
      </trkpt>
      <trkpt lat="47.1491" lon="6.37127">
        <ele>702</ele>
        <time>2019-09-06T22:33:13Z</time>
      </trkpt>
      <trkpt lat="47.14875" lon="6.37209">
        <ele>701.2</ele>
        <time>2019-09-06T22:33:19Z</time>
      </trkpt>
      <trkpt lat="47.14863" lon="6.37241">
        <ele>700</ele>
        <time>2019-09-06T22:33:36Z</time>
      </trkpt>
      <trkpt lat="47.14823" lon="6.37325">
        <ele>702.5</ele>
        <time>2019-09-06T22:34:05Z</time>
      </trkpt>
      <trkpt lat="47.14801" lon="6.37376">
        <ele>705</ele>
        <time>2019-09-06T22:34:15Z</time>
      </trkpt>
      <trkpt lat="47.14792" lon="6.374">
        <ele>707</ele>
        <time>2019-09-06T22:34:39Z</time>
      </trkpt>
      <trkpt lat="47.14771" lon="6.37439">
        <ele>707</ele>
        <time>2019-09-06T22:34:40Z</time>
      </trkpt>
      <trkpt lat="47.14751" lon="6.37488">
        <ele>705.2</ele>
        <time>2019-09-06T22:35:10Z</time>
      </trkpt>
      <trkpt lat="47.14728" lon="6.37541">
        <ele>697.8</ele>
        <time>2019-09-06T22:35:12Z</time>
      </trkpt>
      <trkpt lat="47.14712" lon="6.3758">
        <ele>695.6</ele>
        <time>2019-09-06T22:35:20Z</time>
      </trkpt>
      <trkpt lat="47.14713" lon="6.37605">
        <ele>690.6</ele>
        <time>2019-09-06T22:35:26Z</time>
      </trkpt>
      <trkpt lat="47.1475" lon="6.37652">
        <ele>689.8</ele>
        <time>2019-09-06T22:36:54Z</time>
      </trkpt>
      <trkpt lat="47.14796" lon="6.37674">
        <ele>689</ele>
        <time>2019-09-06T22:37:04Z</time>
      </trkpt>
      <trkpt lat="47.14801" lon="6.3769">
        <ele>689.5</ele>
        <time>2019-09-06T22:37:37Z</time>
      </trkpt>
      <trkpt lat="47.14823" lon="6.37723">
        <ele>689.6</ele>
        <time>2019-09-06T22:37:52Z</time>
      </trkpt>
      <trkpt lat="47.14841" lon="6.37749">
        <ele>690.2</ele>
        <time>2019-09-06T22:38:08Z</time>
      </trkpt>
      <trkpt lat="47.14796" lon="6.37824">
        <ele>693</ele>
        <time>2019-09-06T22:38:29Z</time>
      </trkpt>
      <trkpt lat="47.14771" lon="6.37868">
        <ele>698.9</ele>
        <time>2019-09-06T22:39:00Z</time>
      </trkpt>
      <trkpt lat="47.14739" lon="6.37851">
        <ele>700.8</ele>
        <time>2019-09-06T22:39:43Z</time>
      </trkpt>
      <trkpt lat="47.14838" lon="6.38143">
        <ele>714</ele>
        <time>2019-09-06T22:39:59Z</time>
      </trkpt>
      <trkpt lat="47.14851" lon="6.38175">
        <ele>715.1</ele>
        <time>2019-09-06T22:40:18Z</time>
      </trkpt>
      <trkpt lat="47.14807" lon="6.38235">
        <ele>710</ele>
        <time>2019-09-06T22:42:21Z</time>
      </trkpt>
      <trkpt lat="47.14787" lon="6.38251">
        <ele>710</ele>
        <time>2019-09-06T22:45:39Z</time>
      </trkpt>
      <trkpt lat="47.14764" lon="6.38285">
        <ele>711.1</ele>
        <time>2019-09-06T22:45:46Z</time>
      </trkpt>
      <trkpt lat="47.14736" lon="6.38305">
        <ele>712</ele>
        <time>2019-09-06T22:45:54Z</time>
      </trkpt>
      <trkpt lat="47.14717" lon="6.38319">
        <ele>712</ele>
        <time>2019-09-06T22:46:12Z</time>
      </trkpt>
      <trkpt lat="47.14679" lon="6.3835">
        <ele>715</ele>
        <time>2019-09-06T22:46:19Z</time>
      </trkpt>
      <trkpt lat="47.14619" lon="6.38387">
        <ele>719</ele>
        <time>2019-09-06T22:46:43Z</time>
      </trkpt>
      <trkpt lat="47.14601" lon="6.38437">
        <ele>722.2</ele>
        <time>2019-09-06T22:49:58Z</time>
      </trkpt>
      <trkpt lat="47.1456" lon="6.38494">
        <ele>727</ele>
        <time>2019-09-06T22:50:29Z</time>
      </trkpt>
      <trkpt lat="47.14549" lon="6.38511">
        <ele>730.2</ele>
        <time>2019-09-06T22:50:42Z</time>
      </trkpt>
      <trkpt lat="47.14542" lon="6.38543">
        <ele>731</ele>
        <time>2019-09-06T22:52:15Z</time>
      </trkpt>
      <trkpt lat="47.14552" lon="6.38572">
        <ele>731.4</ele>
        <time>2019-09-06T22:52:21Z</time>
      </trkpt>
      <trkpt lat="47.1457" lon="6.38588">
        <ele>734</ele>
        <time>2019-09-06T22:52:25Z</time>
      </trkpt>
      <trkpt lat="47.14582" lon="6.38615">
        <ele>736</ele>
        <time>2019-09-06T22:52:31Z</time>
      </trkpt>
      <trkpt lat="47.14587" lon="6.38641">
        <ele>736.2</ele>
        <time>2019-09-06T22:52:35Z</time>
      </trkpt>
      <trkpt lat="47.14526" lon="6.38607">
        <ele>737.6</ele>
        <time>2019-09-06T22:52:39Z</time>
      </trkpt>
      <trkpt lat="47.14493" lon="6.38595">
        <ele>738</ele>
        <time>2019-09-06T22:52:41Z</time>
      </trkpt>
      <trkpt lat="47.14455" lon="6.38581">
        <ele>739</ele>
        <time>2019-09-06T22:52:51Z</time>
      </trkpt>
      <trkpt lat="47.14405" lon="6.38585">
        <ele>741.7</ele>
        <time>2019-09-06T22:52:58Z</time>
      </trkpt>
      <trkpt lat="47.14378" lon="6.38606">
        <ele>742.4</ele>
        <time>2019-09-06T22:53:04Z</time>
      </trkpt>
      <trkpt lat="47.14399" lon="6.38629">
        <ele>743.8</ele>
        <time>2019-09-06T22:53:10Z</time>
      </trkpt>
      <trkpt lat="47.14426" lon="6.38657">
        <ele>746.5</ele>
        <time>2019-09-06T22:53:12Z</time>
      </trkpt>
      <trkpt lat="47.14461" lon="6.38683">
        <ele>749.5</ele>
        <time>2019-09-06T22:53:13Z</time>
      </trkpt>
      <trkpt lat="47.14525" lon="6.38732">
        <ele>750.6</ele>
        <time>2019-09-06T22:53:15Z</time>
      </trkpt>
      <trkpt lat="47.14621" lon="6.38799">
        <ele>759.9</ele>
        <time>2019-09-06T22:53:18Z</time>
      </trkpt>
      <trkpt lat="47.14654" lon="6.38825">
        <ele>762</ele>
        <time>2019-09-06T22:53:22Z</time>
      </trkpt>
      <trkpt lat="47.14692" lon="6.38849">
        <ele>767.5</ele>
        <time>2019-09-06T22:53:30Z</time>
      </trkpt>
      <trkpt lat="47.1474" lon="6.38883">
        <ele>769.9</ele>
        <time>2019-09-06T22:53:42Z</time>
      </trkpt>
      <trkpt lat="47.14775" lon="6.38911">
        <ele>771.2</ele>
        <time>2019-09-06T22:53:46Z</time>
      </trkpt>
      <trkpt lat="47.14832" lon="6.38949">
        <ele>776</ele>
        <time>2019-09-06T22:53:50Z</time>
      </trkpt>
      <trkpt lat="47.14846" lon="6.38963">
        <ele>777</ele>
        <time>2019-09-06T22:53:54Z</time>
      </trkpt>
      <trkpt lat="47.14892" lon="6.38995">
        <ele>778</ele>
        <time>2019-09-06T22:54:00Z</time>
      </trkpt>
      <trkpt lat="47.1492" lon="6.39015">
        <ele>779.1</ele>
        <time>2019-09-06T22:54:06Z</time>
      </trkpt>
      <trkpt lat="47.1495" lon="6.39036">
        <ele>780.1</ele>
        <time>2019-09-06T22:54:11Z</time>
      </trkpt>
      <trkpt lat="47.14982" lon="6.39056">
        <ele>780.6</ele>
        <time>2019-09-06T22:54:18Z</time>
      </trkpt>
      <trkpt lat="47.15033" lon="6.39096">
        <ele>782.1</ele>
        <time>2019-09-06T22:54:19Z</time>
      </trkpt>
      <trkpt lat="47.15064" lon="6.3912">
        <ele>782.1</ele>
        <time>2019-09-06T22:54:22Z</time>
      </trkpt>
      <trkpt lat="47.15105" lon="6.39152">
        <ele>780</ele>
        <time>2019-09-06T22:54:27Z</time>
      </trkpt>
      <trkpt lat="47.15138" lon="6.39188">
        <ele>778</ele>
        <time>2019-09-06T22:54:35Z</time>
      </trkpt>
      <trkpt lat="47.15149" lon="6.39207">
        <ele>779</ele>
        <time>2019-09-06T22:54:44Z</time>
      </trkpt>
      <trkpt lat="47.15235" lon="6.3924">
        <ele>775</ele>
        <time>2019-09-06T22:54:49Z</time>
      </trkpt>
      <trkpt lat="47.15284" lon="6.39251">
        <ele>774</ele>
        <time>2019-09-06T22:55:09Z</time>
      </trkpt>
      <trkpt lat="47.15335" lon="6.39267">
        <ele>774</ele>
        <time>2019-09-06T22:55:21Z</time>
      </trkpt>
      <trkpt lat="47.15341" lon="6.3939">
        <ele>786.7</ele>
        <time>2019-09-06T22:55:58Z</time>
      </trkpt>
      <trkpt lat="47.15361" lon="6.39433">
        <ele>792.1</ele>
        <time>2019-09-06T22:56:05Z</time>
      </trkpt>
      <trkpt lat="47.15397" lon="6.39519">
        <ele>799.7</ele>
        <time>2019-09-06T22:56:09Z</time>
      </trkpt>
      <trkpt lat="47.15425" lon="6.39583">
        <ele>802.7</ele>
        <time>2019-09-06T22:56:12Z</time>
      </trkpt>
      <trkpt lat="47.15446" lon="6.3964">
        <ele>806.6</ele>
        <time>2019-09-06T22:56:14Z</time>
      </trkpt>
      <trkpt lat="47.15452" lon="6.39685">
        <ele>812.3</ele>
        <time>2019-09-06T22:56:18Z</time>
      </trkpt>
      <trkpt lat="47.15469" lon="6.39791">
        <ele>819.6</ele>
        <time>2019-09-06T22:56:36Z</time>
      </trkpt>
      <trkpt lat="47.15478" lon="6.39855">
        <ele>820</ele>
        <time>2019-09-06T22:56:38Z</time>
      </trkpt>
      <trkpt lat="47.1549" lon="6.39914">
        <ele>818.6</ele>
        <time>2019-09-06T22:56:53Z</time>
      </trkpt>
      <trkpt lat="47.15449" lon="6.39935">
        <ele>813.1</ele>
        <time>2019-09-06T22:57:16Z</time>
      </trkpt>
      <trkpt lat="47.15393" lon="6.39949">
        <ele>813.6</ele>
        <time>2019-09-06T22:57:23Z</time>
      </trkpt>
      <trkpt lat="47.15334" lon="6.39956">
        <ele>813.9</ele>
        <time>2019-09-06T22:57:34Z</time>
      </trkpt>
      <trkpt lat="47.15314" lon="6.39953">
        <ele>814.3</ele>
        <time>2019-09-06T22:58:00Z</time>
      </trkpt>
      <trkpt lat="47.1529" lon="6.39938">
        <ele>816</ele>
        <time>2019-09-06T22:58:24Z</time>
      </trkpt>
      <trkpt lat="47.15265" lon="6.39899">
        <ele>817.7</ele>
        <time>2019-09-06T22:58:41Z</time>
      </trkpt>
      <trkpt lat="47.15239" lon="6.39868">
        <ele>816</ele>
        <time>2019-09-06T22:58:43Z</time>
      </trkpt>
      <trkpt lat="47.15211" lon="6.39839">
        <ele>815.1</ele>
        <time>2019-09-06T22:59:03Z</time>
      </trkpt>
      <trkpt lat="47.15189" lon="6.39812">
        <ele>813</ele>
        <time>2019-09-06T22:59:10Z</time>
      </trkpt>
      <trkpt lat="47.15145" lon="6.39763">
        <ele>810.8</ele>
        <time>2019-09-06T22:59:12Z</time>
      </trkpt>
      <trkpt lat="47.15135" lon="6.39783">
        <ele>811.7</ele>
        <time>2019-09-06T22:59:26Z</time>
      </trkpt>
      <trkpt lat="47.15107" lon="6.39832">
        <ele>813.3</ele>
        <time>2019-09-06T22:59:59Z</time>
      </trkpt>
      <trkpt lat="47.15051" lon="6.39936">
        <ele>812.4</ele>
        <time>2019-09-06T23:00:06Z</time>
      </trkpt>
      <trkpt lat="47.15031" lon="6.39974">
        <ele>810.3</ele>
        <time>2019-09-06T23:00:24Z</time>
      </trkpt>
      <trkpt lat="47.1501" lon="6.40013">
        <ele>806.6</ele>
        <time>2019-09-06T23:00:35Z</time>
      </trkpt>
      <trkpt lat="47.14998" lon="6.40031">
        <ele>809.5</ele>
        <time>2019-09-06T23:01:01Z</time>
      </trkpt>
      <trkpt lat="47.14995" lon="6.4004">
        <ele>810</ele>
        <time>2019-09-06T23:01:08Z</time>
      </trkpt>
      <trkpt lat="47.14925" lon="6.40019">
        <ele>812.1</ele>
        <time>2019-09-06T23:01:19Z</time>
      </trkpt>
      <trkpt lat="47.14883" lon="6.39978">
        <ele>814.1</ele>
        <time>2019-09-06T23:01:29Z</time>
      </trkpt>
      <trkpt lat="47.14864" lon="6.39937">
        <ele>814.4</ele>
        <time>2019-09-06T23:01:48Z</time>
      </trkpt>
      <trkpt lat="47.14907" lon="6.39912">
        <ele>815</ele>
        <time>2019-09-06T23:01:55Z</time>
      </trkpt>
      <trkpt lat="47.14947" lon="6.39875">
        <ele>816</ele>
        <time>2019-09-06T23:02:06Z</time>
      </trkpt>
      <trkpt lat="47.14982" lon="6.3983">
        <ele>816.3</ele>
        <time>2019-09-06T23:02:17Z</time>
      </trkpt>
      <trkpt lat="47.15008" lon="6.3978">
        <ele>814.2</ele>
        <time>2019-09-06T23:02:21Z</time>
      </trkpt>
      <trkpt lat="47.15015" lon="6.39737">
        <ele>811.8</ele>
        <time>2019-09-06T23:02:25Z</time>
      </trkpt>
      <trkpt lat="47.15022" lon="6.39661">
        <ele>807.6</ele>
        <time>2019-09-06T23:02:33Z</time>
      </trkpt>
      <trkpt lat="47.15024" lon="6.39557">
        <ele>802.5</ele>
        <time>2019-09-06T23:02:40Z</time>
      </trkpt>
      <trkpt lat="47.15024" lon="6.39503">
        <ele>801.2</ele>
        <time>2019-09-06T23:02:44Z</time>
      </trkpt>
      <trkpt lat="47.15004" lon="6.39504">
        <ele>801.1</ele>
        <time>2019-09-06T23:03:02Z</time>
      </trkpt>
      <trkpt lat="47.14956" lon="6.39506">
        <ele>803.7</ele>
        <time>2019-09-06T23:03:08Z</time>
      </trkpt>
      <trkpt lat="47.1489" lon="6.39512">
        <ele>804</ele>
        <time>2019-09-06T23:03:14Z</time>
      </trkpt>
      <trkpt lat="47.1483" lon="6.39524">
        <ele>800.7</ele>
        <time>2019-09-06T23:03:16Z</time>
      </trkpt>
      <trkpt lat="47.14797" lon="6.3953">
        <ele>799.9</ele>
        <time>2019-09-06T23:03:24Z</time>
      </trkpt>
      <trkpt lat="47.14769" lon="6.39524">
        <ele>798</ele>
        <time>2019-09-06T23:03:28Z</time>
      </trkpt>
      <trkpt lat="47.14753" lon="6.39506">
        <ele>795.4</ele>
        <time>2019-09-06T23:03:35Z</time>
      </trkpt>
      <trkpt lat="47.14727" lon="6.39473">
        <ele>790</ele>
        <time>2019-09-06T23:03:42Z</time>
      </trkpt>
      <trkpt lat="47.14698" lon="6.39431">
        <ele>787.6</ele>
        <time>2019-09-06T23:03:52Z</time>
      </trkpt>
      <trkpt lat="47.14663" lon="6.39383">
        <ele>782.7</ele>
        <time>2019-09-06T23:04:10Z</time>
      </trkpt>
      <trkpt lat="47.14638" lon="6.39375">
        <ele>782.4</ele>
        <time>2019-09-06T23:04:18Z</time>
      </trkpt>
      <trkpt lat="47.14621" lon="6.39387">
        <ele>781.7</ele>
        <time>2019-09-06T23:04:20Z</time>
      </trkpt>
      <trkpt lat="47.14597" lon="6.39415">
        <ele>780.2</ele>
        <time>2019-09-06T23:04:22Z</time>
      </trkpt>
      <trkpt lat="47.14572" lon="6.39435">
        <ele>776.9</ele>
        <time>2019-09-06T23:04:53Z</time>
      </trkpt>
      <trkpt lat="47.14536" lon="6.39442">
        <ele>774.5</ele>
        <time>2019-09-06T23:04:56Z</time>
      </trkpt>
      <trkpt lat="47.14482" lon="6.39437">
        <ele>765</ele>
        <time>2019-09-06T23:06:40Z</time>
      </trkpt>
      <trkpt lat="47.14449" lon="6.39439">
        <ele>761.9</ele>
        <time>2019-09-06T23:07:13Z</time>
      </trkpt>
      <trkpt lat="47.14427" lon="6.39439">
        <ele>760</ele>
        <time>2019-09-06T23:07:21Z</time>
      </trkpt>
      <trkpt lat="47.14363" lon="6.39448">
        <ele>751</ele>
        <time>2019-09-06T23:07:24Z</time>
      </trkpt>
      <trkpt lat="47.14314" lon="6.39454">
        <ele>746</ele>
        <time>2019-09-06T23:07:36Z</time>
      </trkpt>
      <trkpt lat="47.14298" lon="6.39458">
        <ele>745</ele>
        <time>2019-09-06T23:07:44Z</time>
      </trkpt>
      <trkpt lat="47.1426" lon="6.39476">
        <ele>743</ele>
        <time>2019-09-06T23:07:52Z</time>
      </trkpt>
      <trkpt lat="47.14198" lon="6.39501">
        <ele>739</ele>
        <time>2019-09-06T23:08:06Z</time>
      </trkpt>
      <trkpt lat="47.14154" lon="6.39511">
        <ele>737</ele>
        <time>2019-09-06T23:08:10Z</time>
      </trkpt>
      <trkpt lat="47.14129" lon="6.39514">
        <ele>736</ele>
        <time>2019-09-06T23:08:17Z</time>
      </trkpt>
      <trkpt lat="47.14115" lon="6.39516">
        <ele>735.7</ele>
        <time>2019-09-06T23:08:25Z</time>
      </trkpt>
      <trkpt lat="47.14174" lon="6.39575">
        <ele>737</ele>
        <time>2019-09-06T23:08:33Z</time>
      </trkpt>
      <trkpt lat="47.14205" lon="6.39607">
        <ele>737.8</ele>
        <time>2019-09-06T23:08:37Z</time>
      </trkpt>
      <trkpt lat="47.14226" lon="6.39734">
        <ele>738</ele>
        <time>2019-09-06T23:08:43Z</time>
      </trkpt>
      <trkpt lat="47.14238" lon="6.39794">
        <ele>739</ele>
        <time>2019-09-06T23:08:53Z</time>
      </trkpt>
      <trkpt lat="47.14258" lon="6.39851">
        <ele>742</ele>
        <time>2019-09-06T23:08:58Z</time>
      </trkpt>
      <trkpt lat="47.14297" lon="6.39916">
        <ele>744</ele>
        <time>2019-09-06T23:09:02Z</time>
      </trkpt>
      <trkpt lat="47.14298" lon="6.39928">
        <ele>745</ele>
        <time>2019-09-06T23:09:10Z</time>
      </trkpt>
      <trkpt lat="47.14296" lon="6.39992">
        <ele>745.9</ele>
        <time>2019-09-06T23:09:13Z</time>
      </trkpt>
      <trkpt lat="47.14307" lon="6.40114">
        <ele>755</ele>
        <time>2019-09-06T23:09:16Z</time>
      </trkpt>
      <trkpt lat="47.14312" lon="6.40124">
        <ele>756</ele>
        <time>2019-09-06T23:09:25Z</time>
      </trkpt>
      <trkpt lat="47.14337" lon="6.4015">
        <ele>761</ele>
        <time>2019-09-06T23:09:31Z</time>
      </trkpt>
      <trkpt lat="47.1436" lon="6.40168">
        <ele>763</ele>
        <time>2019-09-06T23:09:35Z</time>
      </trkpt>
      <trkpt lat="47.14398" lon="6.40218">
        <ele>765.9</ele>
        <time>2019-09-06T23:09:37Z</time>
      </trkpt>
      <trkpt lat="47.14443" lon="6.40281">
        <ele>773.4</ele>
        <time>2019-09-06T23:09:43Z</time>
      </trkpt>
      <trkpt lat="47.1448" lon="6.40327">
        <ele>776.3</ele>
        <time>2019-09-06T23:09:48Z</time>
      </trkpt>
      <trkpt lat="47.14524" lon="6.40389">
        <ele>776.6</ele>
        <time>2019-09-06T23:11:05Z</time>
      </trkpt>
      <trkpt lat="47.14653" lon="6.40514">
        <ele>783</ele>
        <time>2019-09-06T23:12:31Z</time>
      </trkpt>
      <trkpt lat="47.14691" lon="6.40538">
        <ele>785</ele>
        <time>2019-09-06T23:12:41Z</time>
      </trkpt>
      <trkpt lat="47.14829" lon="6.40591">
        <ele>794</ele>
        <time>2019-09-06T23:13:04Z</time>
      </trkpt>
      <trkpt lat="47.14893" lon="6.40613">
        <ele>795</ele>
        <time>2019-09-06T23:13:11Z</time>
      </trkpt>
      <trkpt lat="47.14959" lon="6.40616">
        <ele>797</ele>
        <time>2019-09-06T23:15:36Z</time>
      </trkpt>
      <trkpt lat="47.15048" lon="6.40608">
        <ele>798</ele>
        <time>2019-09-06T23:16:16Z</time>
      </trkpt>
      <trkpt lat="47.15183" lon="6.40619">
        <ele>803</ele>
        <time>2019-09-06T23:18:48Z</time>
      </trkpt>
      <trkpt lat="47.15365" lon="6.40653">
        <ele>811</ele>
        <time>2019-09-06T23:18:53Z</time>
      </trkpt>
      <trkpt lat="47.15433" lon="6.40671">
        <ele>812</ele>
        <time>2019-09-06T23:19:07Z</time>
      </trkpt>
      <trkpt lat="47.15513" lon="6.40683">
        <ele>813</ele>
        <time>2019-09-06T23:19:10Z</time>
      </trkpt>
      <trkpt lat="47.15549" lon="6.40687">
        <ele>811.7</ele>
        <time>2019-09-06T23:19:17Z</time>
      </trkpt>
      <trkpt lat="47.15694" lon="6.40704">
        <ele>808.6</ele>
        <time>2019-09-06T23:19:22Z</time>
      </trkpt>
      <trkpt lat="47.15817" lon="6.40704">
        <ele>810.8</ele>
        <time>2019-09-06T23:21:55Z</time>
      </trkpt>
      <trkpt lat="47.15894" lon="6.40701">
        <ele>814.3</ele>
        <time>2019-09-06T23:22:20Z</time>
      </trkpt>
      <trkpt lat="47.15948" lon="6.407">
        <ele>814.5</ele>
        <time>2019-09-06T23:23:20Z</time>
      </trkpt>
      <trkpt lat="47.16004" lon="6.40706">
        <ele>810.4</ele>
        <time>2019-09-06T23:23:54Z</time>
      </trkpt>
      <trkpt lat="47.16037" lon="6.40728">
        <ele>810</ele>
        <time>2019-09-06T23:23:57Z</time>
      </trkpt>
      <trkpt lat="47.16106" lon="6.40762">
        <ele>805.3</ele>
        <time>2019-09-06T23:24:00Z</time>
      </trkpt>
      <trkpt lat="47.16163" lon="6.408">
        <ele>801.1</ele>
        <time>2019-09-06T23:24:07Z</time>
      </trkpt>
      <trkpt lat="47.16211" lon="6.40852">
        <ele>794.3</ele>
        <time>2019-09-06T23:25:04Z</time>
      </trkpt>
      <trkpt lat="47.16243" lon="6.409">
        <ele>792.7</ele>
        <time>2019-09-06T23:25:09Z</time>
      </trkpt>
      <trkpt lat="47.16264" lon="6.40914">
        <ele>787.8</ele>
        <time>2019-09-06T23:25:34Z</time>
      </trkpt>
      <trkpt lat="47.16288" lon="6.40932">
        <ele>790.9</ele>
        <time>2019-09-06T23:25:41Z</time>
      </trkpt>
      <trkpt lat="47.16311" lon="6.40932">
        <ele>789.6</ele>
        <time>2019-09-06T23:25:45Z</time>
      </trkpt>
      <trkpt lat="47.16341" lon="6.40939">
        <ele>787.2</ele>
        <time>2019-09-06T23:25:50Z</time>
      </trkpt>
      <trkpt lat="47.16363" lon="6.40962">
        <ele>788.7</ele>
        <time>2019-09-06T23:25:55Z</time>
      </trkpt>
      <trkpt lat="47.16347" lon="6.41006">
        <ele>796.2</ele>
        <time>2019-09-06T23:26:00Z</time>
      </trkpt>
      <trkpt lat="47.16319" lon="6.41089">
        <ele>806.1</ele>
        <time>2019-09-06T23:26:03Z</time>
      </trkpt>
      <trkpt lat="47.16297" lon="6.41146">
        <ele>808.1</ele>
        <time>2019-09-06T23:26:07Z</time>
      </trkpt>
      <trkpt lat="47.16281" lon="6.41193">
        <ele>811.6</ele>
        <time>2019-09-06T23:26:25Z</time>
      </trkpt>
      <trkpt lat="47.16269" lon="6.41232">
        <ele>812.7</ele>
        <time>2019-09-06T23:26:30Z</time>
      </trkpt>
      <trkpt lat="47.16242" lon="6.41306">
        <ele>816</ele>
        <time>2019-09-06T23:26:38Z</time>
      </trkpt>
      <trkpt lat="47.16203" lon="6.4142">
        <ele>814.3</ele>
        <time>2019-09-06T23:27:17Z</time>
      </trkpt>
      <trkpt lat="47.16215" lon="6.41427">
        <ele>814.5</ele>
        <time>2019-09-06T23:27:56Z</time>
      </trkpt>
      <trkpt lat="47.16248" lon="6.41458">
        <ele>813.9</ele>
        <time>2019-09-06T23:28:03Z</time>
      </trkpt>
      <trkpt lat="47.16298" lon="6.41498">
        <ele>812.6</ele>
        <time>2019-09-06T23:29:12Z</time>
      </trkpt>
      <trkpt lat="47.16247" lon="6.4157">
        <ele>807</ele>
        <time>2019-09-06T23:29:40Z</time>
      </trkpt>
      <trkpt lat="47.16271" lon="6.41595">
        <ele>806</ele>
        <time>2019-09-06T23:31:34Z</time>
      </trkpt>
      <trkpt lat="47.16283" lon="6.41642">
        <ele>805</ele>
        <time>2019-09-06T23:32:21Z</time>
      </trkpt>
      <trkpt lat="47.16318" lon="6.41742">
        <ele>804</ele>
        <time>2019-09-06T23:33:32Z</time>
      </trkpt>
      <trkpt lat="47.1634" lon="6.41775">
        <ele>804</ele>
        <time>2019-09-06T23:37:07Z</time>
      </trkpt>
      <trkpt lat="47.16353" lon="6.41811">
        <ele>803.3</ele>
        <time>2019-09-06T23:37:12Z</time>
      </trkpt>
      <trkpt lat="47.16331" lon="6.41842">
        <ele>801.1</ele>
        <time>2019-09-06T23:37:54Z</time>
      </trkpt>
      <trkpt lat="47.16286" lon="6.41889">
        <ele>796</ele>
        <time>2019-09-06T23:38:22Z</time>
      </trkpt>
      <trkpt lat="47.16256" lon="6.41916">
        <ele>793.1</ele>
        <time>2019-09-06T23:39:58Z</time>
      </trkpt>
      <trkpt lat="47.16228" lon="6.4197">
        <ele>787.6</ele>
        <time>2019-09-06T23:40:02Z</time>
      </trkpt>
      <trkpt lat="47.16334" lon="6.42042">
        <ele>794.2</ele>
        <time>2019-09-06T23:40:08Z</time>
      </trkpt>
      <trkpt lat="47.16462" lon="6.42129">
        <ele>788.9</ele>
        <time>2019-09-06T23:40:23Z</time>
      </trkpt>
      <trkpt lat="47.16528" lon="6.42172">
        <ele>786.5</ele>
        <time>2019-09-06T23:40:31Z</time>
      </trkpt>
      <trkpt lat="47.16627" lon="6.42239">
        <ele>786.6</ele>
        <time>2019-09-06T23:40:37Z</time>
      </trkpt>
      <trkpt lat="47.16676" lon="6.4227">
        <ele>787.1</ele>
        <time>2019-09-06T23:40:43Z</time>
      </trkpt>
      <trkpt lat="47.16714" lon="6.423">
        <ele>789.8</ele>
        <time>2019-09-06T23:41:05Z</time>
      </trkpt>
      <trkpt lat="47.16777" lon="6.42342">
        <ele>799.6</ele>
        <time>2019-09-06T23:41:52Z</time>
      </trkpt>
      <trkpt lat="47.16811" lon="6.42368">
        <ele>802.9</ele>
        <time>2019-09-06T23:42:10Z</time>
      </trkpt>
      <trkpt lat="47.16869" lon="6.42402">
        <ele>809.5</ele>
        <time>2019-09-06T23:42:50Z</time>
      </trkpt>
      <trkpt lat="47.16927" lon="6.4244">
        <ele>808.8</ele>
        <time>2019-09-06T23:43:39Z</time>
      </trkpt>
      <trkpt lat="47.16913" lon="6.42495">
        <ele>804</ele>
        <time>2019-09-06T23:44:36Z</time>
      </trkpt>
      <trkpt lat="47.1686" lon="6.42676">
        <ele>781</ele>
        <time>2019-09-06T23:45:22Z</time>
      </trkpt>
      <trkpt lat="47.16834" lon="6.42751">
        <ele>774</ele>
        <time>2019-09-06T23:45:45Z</time>
      </trkpt>
      <trkpt lat="47.16826" lon="6.42786">
        <ele>767.2</ele>
        <time>2019-09-06T23:45:51Z</time>
      </trkpt>
      <trkpt lat="47.16868" lon="6.42797">
        <ele>763.9</ele>
        <time>2019-09-06T23:45:55Z</time>
      </trkpt>
      <trkpt lat="47.16909" lon="6.42802">
        <ele>762.3</ele>
        <time>2019-09-06T23:47:10Z</time>
      </trkpt>
      <trkpt lat="47.16959" lon="6.42805">
        <ele>763.1</ele>
        <time>2019-09-06T23:50:18Z</time>
      </trkpt>
      <trkpt lat="47.1699" lon="6.42808">
        <ele>763</ele>
        <time>2019-09-06T23:50:21Z</time>
      </trkpt>
      <trkpt lat="47.17031" lon="6.42853">
        <ele>758.2</ele>
        <time>2019-09-06T23:51:39Z</time>
      </trkpt>
      <trkpt lat="47.17059" lon="6.42898">
        <ele>756.8</ele>
        <time>2019-09-06T23:51:59Z</time>
      </trkpt>
      <trkpt lat="47.17115" lon="6.42937">
        <ele>760.6</ele>
        <time>2019-09-06T23:52:06Z</time>
      </trkpt>
      <trkpt lat="47.17186" lon="6.4297">
        <ele>770</ele>
        <time>2019-09-06T23:52:49Z</time>
      </trkpt>
      <trkpt lat="47.17207" lon="6.42984">
        <ele>771</ele>
        <time>2019-09-06T23:53:05Z</time>
      </trkpt>
      <trkpt lat="47.17221" lon="6.42997">
        <ele>772</ele>
        <time>2019-09-06T23:53:42Z</time>
      </trkpt>
      <trkpt lat="47.1724" lon="6.43027">
        <ele>772</ele>
        <time>2019-09-06T23:53:56Z</time>
      </trkpt>
      <trkpt lat="47.17256" lon="6.43029">
        <ele>773</ele>
        <time>2019-09-06T23:55:31Z</time>
      </trkpt>
      <trkpt lat="47.17273" lon="6.43037">
        <ele>772</ele>
        <time>2019-09-06T23:55:48Z</time>
      </trkpt>
      <trkpt lat="47.17282" lon="6.43044">
        <ele>772</ele>
        <time>2019-09-06T23:57:23Z</time>
      </trkpt>
      <trkpt lat="47.17323" lon="6.43052">
        <ele>772</ele>
        <time>2019-09-06T23:57:45Z</time>
      </trkpt>
      <trkpt lat="47.1735" lon="6.43037">
        <ele>773</ele>
        <time>2019-09-06T23:57:52Z</time>
      </trkpt>
      <trkpt lat="47.17371" lon="6.43013">
        <ele>774</ele>
        <time>2019-09-06T23:58:21Z</time>
      </trkpt>
      <trkpt lat="47.17391" lon="6.42985">
        <ele>775</ele>
        <time>2019-09-06T23:58:39Z</time>
      </trkpt>
      <trkpt lat="47.17397" lon="6.42983">
        <ele>775</ele>
        <time>2019-09-06T23:59:34Z</time>
      </trkpt>
      <trkpt lat="47.17401" lon="6.42989">
        <ele>775</ele>
        <time>2019-09-07T00:00:20Z</time>
      </trkpt>
      <trkpt lat="47.17402" lon="6.42998">
        <ele>774</ele>
        <time>2019-09-07T00:00:36Z</time>
      </trkpt>
      <trkpt lat="47.174" lon="6.43022">
        <ele>772</ele>
      </trkpt>
      <trkpt lat="47.17403" lon="6.43043">
        <ele>770</ele>
      </trkpt>
      <trkpt lat="47.17427" lon="6.43079">
        <ele>767</ele>
      </trkpt>
      <trkpt lat="47.17479" lon="6.4309">
        <ele>768</ele>
      </trkpt>
      <trkpt lat="47.17497" lon="6.43096">
        <ele>769</ele>
      </trkpt>
      <trkpt lat="47.17509" lon="6.43108">
        <ele>770</ele>
      </trkpt>
      <trkpt lat="47.17512" lon="6.43131">
        <ele>770</ele>
      </trkpt>
      <trkpt lat="47.17525" lon="6.43164">
        <ele>773</ele>
      </trkpt>
      <trkpt lat="47.17536" lon="6.43202">
        <ele>775</ele>
      </trkpt>
      <trkpt lat="47.17552" lon="6.43218">
        <ele>776</ele>
      </trkpt>
      <trkpt lat="47.1758" lon="6.43235">
        <ele>779</ele>
      </trkpt>
      <trkpt lat="47.17583" lon="6.43241">
        <ele>780</ele>
      </trkpt>
      <trkpt lat="47.17586" lon="6.43261">
        <ele>780</ele>
      </trkpt>
      <trkpt lat="47.17603" lon="6.43282">
        <ele>781</ele>
      </trkpt>
      <trkpt lat="47.17624" lon="6.43317">
        <ele>782</ele>
      </trkpt>
      <trkpt lat="47.17652" lon="6.43354">
        <ele>781</ele>
      </trkpt>
      <trkpt lat="47.17661" lon="6.43386">
        <ele>778</ele>
      </trkpt>
      <trkpt lat="47.17618" lon="6.435">
        <ele>765.4</ele>
      </trkpt>
      <trkpt lat="47.1764" lon="6.43571">
        <ele>759</ele>
      </trkpt>
      <trkpt lat="47.1771" lon="6.4378">
        <ele>750</ele>
      </trkpt>
      <trkpt lat="47.17721" lon="6.43822">
        <ele>751</ele>
      </trkpt>
      <trkpt lat="47.17723" lon="6.43843">
        <ele>751</ele>
      </trkpt>
      <trkpt lat="47.17719" lon="6.43864">
        <ele>751</ele>
      </trkpt>
      <trkpt lat="47.17715" lon="6.43873">
        <ele>750</ele>
      </trkpt>
      <trkpt lat="47.17702" lon="6.43885">
        <ele>749</ele>
      </trkpt>
      <trkpt lat="47.17628" lon="6.4392">
        <ele>739</ele>
      </trkpt>
      <trkpt lat="47.1762" lon="6.43926">
        <ele>738</ele>
      </trkpt>
      <trkpt lat="47.17565" lon="6.43982">
        <ele>731</ele>
      </trkpt>
      <trkpt lat="47.1749" lon="6.44072">
        <ele>726</ele>
      </trkpt>
      <trkpt lat="47.17467" lon="6.44095">
        <ele>723</ele>
      </trkpt>
      <trkpt lat="47.17432" lon="6.44143">
        <ele>720</ele>
      </trkpt>
      <trkpt lat="47.17352" lon="6.44262">
        <ele>720</ele>
      </trkpt>
      <trkpt lat="47.17277" lon="6.44362">
        <ele>722</ele>
      </trkpt>
      <trkpt lat="47.17226" lon="6.44438">
        <ele>723</ele>
      </trkpt>
      <trkpt lat="47.17219" lon="6.4445">
        <ele>722</ele>
      </trkpt>
      <trkpt lat="47.17176" lon="6.44554">
        <ele>718</ele>
      </trkpt>
      <trkpt lat="47.17165" lon="6.44599">
        <ele>716</ele>
      </trkpt>
      <trkpt lat="47.17177" lon="6.44584">
        <ele>717.3</ele>
      </trkpt>
      <trkpt lat="47.17218" lon="6.44549">
        <ele>721.3</ele>
      </trkpt>
      <trkpt lat="47.17363" lon="6.44456">
        <ele>726.1</ele>
      </trkpt>
      <trkpt lat="47.1738" lon="6.44483">
        <ele>727</ele>
      </trkpt>
      <trkpt lat="47.17453" lon="6.44532">
        <ele>727</ele>
      </trkpt>
      <trkpt lat="47.17494" lon="6.44554">
        <ele>726.2</ele>
      </trkpt>
      <trkpt lat="47.17535" lon="6.4458">
        <ele>725</ele>
      </trkpt>
      <trkpt lat="47.17566" lon="6.44599">
        <ele>724.2</ele>
      </trkpt>
      <trkpt lat="47.17592" lon="6.44616">
        <ele>725.9</ele>
      </trkpt>
      <trkpt lat="47.17621" lon="6.44633">
        <ele>726.3</ele>
      </trkpt>
      <trkpt lat="47.17668" lon="6.44661">
        <ele>729.9</ele>
      </trkpt>
      <trkpt lat="47.17734" lon="6.44703">
        <ele>735.9</ele>
      </trkpt>
      <trkpt lat="47.17774" lon="6.44744">
        <ele>740.6</ele>
      </trkpt>
      <trkpt lat="47.17805" lon="6.44776">
        <ele>737.3</ele>
      </trkpt>
      <trkpt lat="47.17818" lon="6.4473">
        <ele>741.1</ele>
      </trkpt>
      <trkpt lat="47.17836" lon="6.44664">
        <ele>744</ele>
      </trkpt>
      <trkpt lat="47.17852" lon="6.44608">
        <ele>742.6</ele>
      </trkpt>
      <trkpt lat="47.17859" lon="6.44584">
        <ele>742.4</ele>
      </trkpt>
      <trkpt lat="47.17867" lon="6.44558">
        <ele>740.2</ele>
      </trkpt>
      <trkpt lat="47.17889" lon="6.44478">
        <ele>739.4</ele>
      </trkpt>
      <trkpt lat="47.17879" lon="6.44466">
        <ele>739.6</ele>
      </trkpt>
      <trkpt lat="47.17887" lon="6.44435">
        <ele>740.1</ele>
      </trkpt>
      <trkpt lat="47.17916" lon="6.44335">
        <ele>740</ele>
      </trkpt>
      <trkpt lat="47.17923" lon="6.44309">
        <ele>740.1</ele>
      </trkpt>
      <trkpt lat="47.17937" lon="6.44274">
        <ele>740.2</ele>
      </trkpt>
      <trkpt lat="47.17946" lon="6.44241">
        <ele>742.6</ele>
      </trkpt>
      <trkpt lat="47.17932" lon="6.44229">
        <ele>742.6</ele>
      </trkpt>
      <trkpt lat="47.17942" lon="6.44202">
        <ele>743.9</ele>
      </trkpt>
      <trkpt lat="47.17962" lon="6.44153">
        <ele>749.4</ele>
      </trkpt>
      <trkpt lat="47.17977" lon="6.44144">
        <ele>749.9</ele>
      </trkpt>
      <trkpt lat="47.18014" lon="6.44152">
        <ele>752.3</ele>
      </trkpt>
      <trkpt lat="47.18089" lon="6.44164">
        <ele>754.4</ele>
      </trkpt>
      <trkpt lat="47.18128" lon="6.44169">
        <ele>752.4</ele>
      </trkpt>
      <trkpt lat="47.18174" lon="6.44175">
        <ele>755.6</ele>
      </trkpt>
      <trkpt lat="47.18155" lon="6.44231">
        <ele>750.3</ele>
      </trkpt>
      <trkpt lat="47.18124" lon="6.44317">
        <ele>744</ele>
      </trkpt>
      <trkpt lat="47.18112" lon="6.44346">
        <ele>740</ele>
      </trkpt>
      <trkpt lat="47.18102" lon="6.44386">
        <ele>738.9</ele>
      </trkpt>
      <trkpt lat="47.1815" lon="6.44446">
        <ele>736.7</ele>
      </trkpt>
      <trkpt lat="47.18163" lon="6.44468">
        <ele>736.3</ele>
      </trkpt>
      <trkpt lat="47.18195" lon="6.44519">
        <ele>732.2</ele>
      </trkpt>
      <trkpt lat="47.1823" lon="6.44565">
        <ele>729.3</ele>
      </trkpt>
      <trkpt lat="47.18223" lon="6.4459">
        <ele>728.9</ele>
      </trkpt>
      <trkpt lat="47.1821" lon="6.44626">
        <ele>730.4</ele>
      </trkpt>
      <trkpt lat="47.18199" lon="6.4467">
        <ele>733.2</ele>
      </trkpt>
      <trkpt lat="47.18226" lon="6.44689">
        <ele>731.5</ele>
      </trkpt>
      <trkpt lat="47.18303" lon="6.44738">
        <ele>724.5</ele>
      </trkpt>
      <trkpt lat="47.18352" lon="6.44767">
        <ele>722</ele>
      </trkpt>
      <trkpt lat="47.18473" lon="6.44864">
        <ele>721</ele>
      </trkpt>
      <trkpt lat="47.18503" lon="6.44865">
        <ele>717.8</ele>
      </trkpt>
      <trkpt lat="47.18518" lon="6.44873">
        <ele>718</ele>
      </trkpt>
      <trkpt lat="47.18544" lon="6.44802">
        <ele>719</ele>
      </trkpt>
      <trkpt lat="47.18555" lon="6.44758">
        <ele>722</ele>
      </trkpt>
      <trkpt lat="47.18572" lon="6.44713">
        <ele>724</ele>
      </trkpt>
      <trkpt lat="47.18592" lon="6.44629">
        <ele>725</ele>
      </trkpt>
      <trkpt lat="47.18603" lon="6.44611">
        <ele>726</ele>
      </trkpt>
      <trkpt lat="47.18625" lon="6.44638">
        <ele>725</ele>
      </trkpt>
      <trkpt lat="47.18643" lon="6.44683">
        <ele>722</ele>
      </trkpt>
      <trkpt lat="47.18667" lon="6.44721">
        <ele>720</ele>
      </trkpt>
      <trkpt lat="47.1868" lon="6.44733">
        <ele>719</ele>
      </trkpt>
      <trkpt lat="47.18705" lon="6.44748">
        <ele>715</ele>
      </trkpt>
      <trkpt lat="47.18743" lon="6.44779">
        <ele>709</ele>
      </trkpt>
      <trkpt lat="47.18762" lon="6.44775">
        <ele>708</ele>
      </trkpt>
      <trkpt lat="47.1878" lon="6.44782">
        <ele>705</ele>
      </trkpt>
      <trkpt lat="47.18815" lon="6.44789">
        <ele>701</ele>
      </trkpt>
      <trkpt lat="47.18827" lon="6.44789">
        <ele>700</ele>
      </trkpt>
      <trkpt lat="47.18838" lon="6.44781">
        <ele>700</ele>
      </trkpt>
      <trkpt lat="47.18868" lon="6.44749">
        <ele>701</ele>
      </trkpt>
      <trkpt lat="47.18893" lon="6.44757">
        <ele>698</ele>
      </trkpt>
      <trkpt lat="47.18908" lon="6.44742">
        <ele>697</ele>
      </trkpt>
      <trkpt lat="47.1891" lon="6.44729">
        <ele>698</ele>
      </trkpt>
      <trkpt lat="47.18903" lon="6.44692">
        <ele>701</ele>
      </trkpt>
      <trkpt lat="47.18904" lon="6.44663">
        <ele>702</ele>
      </trkpt>
      <trkpt lat="47.18921" lon="6.44602">
        <ele>707.3</ele>
      </trkpt>
      <trkpt lat="47.18935" lon="6.44564">
        <ele>712.1</ele>
      </trkpt>
      <trkpt lat="47.1895" lon="6.44525">
        <ele>714.1</ele>
      </trkpt>
      <trkpt lat="47.18972" lon="6.44473">
        <ele>720.2</ele>
      </trkpt>
      <trkpt lat="47.19014" lon="6.44367">
        <ele>731.6</ele>
      </trkpt>
      <trkpt lat="47.19034" lon="6.44391">
        <ele>730.9</ele>
      </trkpt>
      <trkpt lat="47.19056" lon="6.44417">
        <ele>726.6</ele>
      </trkpt>
      <trkpt lat="47.1907" lon="6.44435">
        <ele>726.6</ele>
      </trkpt>
      <trkpt lat="47.19091" lon="6.44459">
        <ele>727.6</ele>
      </trkpt>
      <trkpt lat="47.1911" lon="6.44479">
        <ele>726.9</ele>
      </trkpt>
      <trkpt lat="47.19128" lon="6.44511">
        <ele>723.1</ele>
      </trkpt>
      <trkpt lat="47.19142" lon="6.44553">
        <ele>722.4</ele>
      </trkpt>
      <trkpt lat="47.19147" lon="6.44602">
        <ele>720</ele>
      </trkpt>
      <trkpt lat="47.19167" lon="6.44701">
        <ele>709.5</ele>
      </trkpt>
      <trkpt lat="47.19181" lon="6.4474">
        <ele>705.4</ele>
      </trkpt>
      <trkpt lat="47.19195" lon="6.44757">
        <ele>699.2</ele>
      </trkpt>
      <trkpt lat="47.1921" lon="6.44769">
        <ele>698.3</ele>
      </trkpt>
      <trkpt lat="47.1923" lon="6.44778">
        <ele>697.9</ele>
      </trkpt>
      <trkpt lat="47.19267" lon="6.44782">
        <ele>697.1</ele>
      </trkpt>
      <trkpt lat="47.19311" lon="6.44812">
        <ele>694.8</ele>
      </trkpt>
      <trkpt lat="47.19336" lon="6.4483">
        <ele>691.8</ele>
      </trkpt>
      <trkpt lat="47.19372" lon="6.44859">
        <ele>691.1</ele>
      </trkpt>
      <trkpt lat="47.19396" lon="6.44884">
        <ele>690.9</ele>
      </trkpt>
      <trkpt lat="47.19406" lon="6.44908">
        <ele>690.3</ele>
      </trkpt>
      <trkpt lat="47.19408" lon="6.44893">
        <ele>691</ele>
      </trkpt>
      <trkpt lat="47.19404" lon="6.44868">
        <ele>692</ele>
      </trkpt>
      <trkpt lat="47.1939" lon="6.44841">
        <ele>693</ele>
      </trkpt>
      <trkpt lat="47.19316" lon="6.44739">
        <ele>701</ele>
      </trkpt>
      <trkpt lat="47.19297" lon="6.44705">
        <ele>705</ele>
      </trkpt>
      <trkpt lat="47.19264" lon="6.44636">
        <ele>715.4</ele>
      </trkpt>
      <trkpt lat="47.19251" lon="6.44595">
        <ele>720</ele>
      </trkpt>
      <trkpt lat="47.19243" lon="6.44555">
        <ele>725.2</ele>
      </trkpt>
      <trkpt lat="47.19241" lon="6.44531">
        <ele>726.7</ele>
      </trkpt>
      <trkpt lat="47.19242" lon="6.44505">
        <ele>728.6</ele>
      </trkpt>
      <trkpt lat="47.19241" lon="6.44468">
        <ele>732.7</ele>
      </trkpt>
      <trkpt lat="47.19237" lon="6.44431">
        <ele>735.3</ele>
      </trkpt>
      <trkpt lat="47.19227" lon="6.44394">
        <ele>739.4</ele>
      </trkpt>
      <trkpt lat="47.19215" lon="6.44364">
        <ele>740.3</ele>
      </trkpt>
      <trkpt lat="47.19195" lon="6.44322">
        <ele>743.4</ele>
      </trkpt>
      <trkpt lat="47.19157" lon="6.44244">
        <ele>744.9</ele>
      </trkpt>
      <trkpt lat="47.19128" lon="6.44168">
        <ele>745.5</ele>
      </trkpt>
      <trkpt lat="47.19113" lon="6.44109">
        <ele>749</ele>
      </trkpt>
      <trkpt lat="47.19089" lon="6.44054">
        <ele>751</ele>
      </trkpt>
      <trkpt lat="47.19066" lon="6.44003">
        <ele>749.4</ele>
      </trkpt>
      <trkpt lat="47.19027" lon="6.43916">
        <ele>750</ele>
      </trkpt>
      <trkpt lat="47.18938" lon="6.43699">
        <ele>742</ele>
      </trkpt>
      <trkpt lat="47.18933" lon="6.43684">
        <ele>741.2</ele>
      </trkpt>
      <trkpt lat="47.18924" lon="6.43655">
        <ele>738.9</ele>
      </trkpt>
      <trkpt lat="47.189" lon="6.43656">
        <ele>742.1</ele>
      </trkpt>
      <trkpt lat="47.18869" lon="6.4366">
        <ele>744.2</ele>
      </trkpt>
      <trkpt lat="47.1886" lon="6.43658">
        <ele>744.9</ele>
      </trkpt>
      <trkpt lat="47.18851" lon="6.43656">
        <ele>745.7</ele>
      </trkpt>
      <trkpt lat="47.18807" lon="6.43646">
        <ele>751.8</ele>
      </trkpt>
      <trkpt lat="47.18785" lon="6.43608">
        <ele>752.7</ele>
      </trkpt>
      <trkpt lat="47.18732" lon="6.43514">
        <ele>757.9</ele>
      </trkpt>
      <trkpt lat="47.18721" lon="6.43486">
        <ele>756.1</ele>
      </trkpt>
      <trkpt lat="47.18704" lon="6.43423">
        <ele>756</ele>
      </trkpt>
      <trkpt lat="47.18688" lon="6.43371">
        <ele>752.3</ele>
      </trkpt>
      <trkpt lat="47.18669" lon="6.43313">
        <ele>749.5</ele>
      </trkpt>
      <trkpt lat="47.18618" lon="6.43209">
        <ele>745.9</ele>
      </trkpt>
      <trkpt lat="47.186" lon="6.4315">
        <ele>741.1</ele>
      </trkpt>
      <trkpt lat="47.18593" lon="6.43114">
        <ele>740</ele>
      </trkpt>
      <trkpt lat="47.18582" lon="6.43096">
        <ele>738.2</ele>
      </trkpt>
      <trkpt lat="47.18564" lon="6.43089">
        <ele>737.9</ele>
      </trkpt>
      <trkpt lat="47.18543" lon="6.43092">
        <ele>737.3</ele>
      </trkpt>
      <trkpt lat="47.1853" lon="6.43105">
        <ele>736</ele>
      </trkpt>
      <trkpt lat="47.18511" lon="6.43128">
        <ele>737</ele>
      </trkpt>
      <trkpt lat="47.18473" lon="6.43188">
        <ele>750</ele>
      </trkpt>
      <trkpt lat="47.18459" lon="6.43195">
        <ele>753</ele>
      </trkpt>
      <trkpt lat="47.18441" lon="6.43228">
        <ele>753</ele>
      </trkpt>
      <trkpt lat="47.18421" lon="6.4324">
        <ele>753</ele>
      </trkpt>
      <trkpt lat="47.18391" lon="6.43239">
        <ele>755.8</ele>
      </trkpt>
      <trkpt lat="47.18366" lon="6.43233">
        <ele>756.6</ele>
      </trkpt>
      <trkpt lat="47.18348" lon="6.43228">
        <ele>756.4</ele>
      </trkpt>
      <trkpt lat="47.18327" lon="6.43233">
        <ele>755.1</ele>
      </trkpt>
      <trkpt lat="47.18304" lon="6.43237">
        <ele>756.2</ele>
      </trkpt>
      <trkpt lat="47.18282" lon="6.43232">
        <ele>756.6</ele>
      </trkpt>
      <trkpt lat="47.18273" lon="6.43231">
        <ele>756.2</ele>
      </trkpt>
      <trkpt lat="47.18256" lon="6.43226">
        <ele>756</ele>
      </trkpt>
      <trkpt lat="47.18231" lon="6.43223">
        <ele>754.8</ele>
      </trkpt>
      <trkpt lat="47.18217" lon="6.4323">
        <ele>754.3</ele>
      </trkpt>
      <trkpt lat="47.18175" lon="6.43221">
        <ele>753.9</ele>
      </trkpt>
      <trkpt lat="47.18152" lon="6.43214">
        <ele>754.6</ele>
      </trkpt>
      <trkpt lat="47.18129" lon="6.43205">
        <ele>755.6</ele>
      </trkpt>
      <trkpt lat="47.18109" lon="6.43194">
        <ele>756.5</ele>
      </trkpt>
      <trkpt lat="47.18083" lon="6.43184">
        <ele>761</ele>
      </trkpt>
      <trkpt lat="47.18072" lon="6.43168">
        <ele>761</ele>
      </trkpt>
      <trkpt lat="47.18077" lon="6.43148">
        <ele>762</ele>
      </trkpt>
      <trkpt lat="47.18093" lon="6.43116">
        <ele>762.8</ele>
      </trkpt>
      <trkpt lat="47.18118" lon="6.43085">
        <ele>763.3</ele>
      </trkpt>
      <trkpt lat="47.18135" lon="6.43062">
        <ele>764.9</ele>
      </trkpt>
      <trkpt lat="47.1817" lon="6.43017">
        <ele>766.2</ele>
      </trkpt>
      <trkpt lat="47.18185" lon="6.42994">
        <ele>766.1</ele>
      </trkpt>
      <trkpt lat="47.182" lon="6.42968">
        <ele>766.6</ele>
      </trkpt>
      <trkpt lat="47.18214" lon="6.42947">
        <ele>766.7</ele>
      </trkpt>
      <trkpt lat="47.18231" lon="6.42914">
        <ele>765.5</ele>
      </trkpt>
      <trkpt lat="47.18238" lon="6.42879">
        <ele>764.6</ele>
      </trkpt>
      <trkpt lat="47.18241" lon="6.42847">
        <ele>763.7</ele>
      </trkpt>
      <trkpt lat="47.18242" lon="6.42805">
        <ele>762</ele>
      </trkpt>
      <trkpt lat="47.18243" lon="6.42758">
        <ele>760.9</ele>
      </trkpt>
      <trkpt lat="47.18237" lon="6.42707">
        <ele>759.2</ele>
      </trkpt>
      <trkpt lat="47.18231" lon="6.4265">
        <ele>755</ele>
      </trkpt>
      <trkpt lat="47.18221" lon="6.42608">
        <ele>754.4</ele>
      </trkpt>
      <trkpt lat="47.18197" lon="6.4252">
        <ele>750.6</ele>
      </trkpt>
      <trkpt lat="47.18191" lon="6.42572">
        <ele>753</ele>
      </trkpt>
      <trkpt lat="47.18177" lon="6.42618">
        <ele>757</ele>
      </trkpt>
      <trkpt lat="47.18158" lon="6.42664">
        <ele>761.9</ele>
      </trkpt>
      <trkpt lat="47.1814" lon="6.42687">
        <ele>763.4</ele>
      </trkpt>
      <trkpt lat="47.18096" lon="6.42716">
        <ele>764</ele>
      </trkpt>
      <trkpt lat="47.17966" lon="6.42814">
        <ele>769</ele>
      </trkpt>
      <trkpt lat="47.17953" lon="6.42822">
        <ele>770</ele>
      </trkpt>
      <trkpt lat="47.17938" lon="6.42831">
        <ele>771.4</ele>
      </trkpt>
      <trkpt lat="47.17915" lon="6.42803">
        <ele>775</ele>
      </trkpt>
      <trkpt lat="47.17888" lon="6.42779">
        <ele>777.5</ele>
      </trkpt>
      <trkpt lat="47.17858" lon="6.42751">
        <ele>779</ele>
      </trkpt>
      <trkpt lat="47.17818" lon="6.42708">
        <ele>785.2</ele>
      </trkpt>
      <trkpt lat="47.17795" lon="6.4269">
        <ele>786.5</ele>
      </trkpt>
      <trkpt lat="47.17759" lon="6.42655">
        <ele>790</ele>
      </trkpt>
      <trkpt lat="47.17743" lon="6.42615">
        <ele>793.9</ele>
      </trkpt>
      <trkpt lat="47.1773" lon="6.42574">
        <ele>793</ele>
      </trkpt>
      <trkpt lat="47.17711" lon="6.42557">
        <ele>793</ele>
      </trkpt>
      <trkpt lat="47.17656" lon="6.42536">
        <ele>799.3</ele>
      </trkpt>
      <trkpt lat="47.17617" lon="6.42515">
        <ele>801</ele>
      </trkpt>
      <trkpt lat="47.17608" lon="6.42484">
        <ele>801.8</ele>
      </trkpt>
      <trkpt lat="47.17601" lon="6.42431">
        <ele>802.6</ele>
      </trkpt>
      <trkpt lat="47.17594" lon="6.42401">
        <ele>802.5</ele>
      </trkpt>
      <trkpt lat="47.17587" lon="6.42362">
        <ele>801.2</ele>
      </trkpt>
      <trkpt lat="47.17573" lon="6.42322">
        <ele>804.2</ele>
      </trkpt>
      <trkpt lat="47.17549" lon="6.42356">
        <ele>807.2</ele>
      </trkpt>
      <trkpt lat="47.17499" lon="6.42424">
        <ele>811</ele>
      </trkpt>
      <trkpt lat="47.17444" lon="6.42496">
        <ele>807.4</ele>
      </trkpt>
      <trkpt lat="47.17429" lon="6.42468">
        <ele>807</ele>
      </trkpt>
      <trkpt lat="47.17415" lon="6.42445">
        <ele>807</ele>
      </trkpt>
      <trkpt lat="47.17392" lon="6.4241">
        <ele>810</ele>
      </trkpt>
      <trkpt lat="47.17361" lon="6.42359">
        <ele>812.5</ele>
      </trkpt>
      <trkpt lat="47.17339" lon="6.42333">
        <ele>813.6</ele>
      </trkpt>
      <trkpt lat="47.17315" lon="6.42302">
        <ele>814.9</ele>
      </trkpt>
      <trkpt lat="47.17308" lon="6.42312">
        <ele>815.2</ele>
      </trkpt>
      <trkpt lat="47.17272" lon="6.42352">
        <ele>817.8</ele>
      </trkpt>
      <trkpt lat="47.17256" lon="6.42379">
        <ele>819</ele>
      </trkpt>
      <trkpt lat="47.1724" lon="6.42397">
        <ele>819</ele>
      </trkpt>
      <trkpt lat="47.17223" lon="6.42373">
        <ele>819.1</ele>
      </trkpt>
      <trkpt lat="47.17202" lon="6.42343">
        <ele>819.3</ele>
      </trkpt>
      <trkpt lat="47.17173" lon="6.423">
        <ele>819.8</ele>
      </trkpt>
      <trkpt lat="47.17146" lon="6.4226">
        <ele>820.8</ele>
      </trkpt>
      <trkpt lat="47.17133" lon="6.42239">
        <ele>822</ele>
      </trkpt>
      <trkpt lat="47.1711" lon="6.42209">
        <ele>824</ele>
      </trkpt>
      <trkpt lat="47.17086" lon="6.42176">
        <ele>825.2</ele>
      </trkpt>
      <trkpt lat="47.17061" lon="6.42142">
        <ele>826.7</ele>
      </trkpt>
      <trkpt lat="47.1704" lon="6.42112">
        <ele>827.3</ele>
      </trkpt>
      <trkpt lat="47.1703" lon="6.42094">
        <ele>827.7</ele>
      </trkpt>
      <trkpt lat="47.17019" lon="6.42085">
        <ele>828</ele>
      </trkpt>
      <trkpt lat="47.16986" lon="6.4207">
        <ele>828.3</ele>
      </trkpt>
      <trkpt lat="47.16962" lon="6.42059">
        <ele>827.9</ele>
      </trkpt>
      <trkpt lat="47.16918" lon="6.42036">
        <ele>828</ele>
      </trkpt>
      <trkpt lat="47.16875" lon="6.42018">
        <ele>825</ele>
      </trkpt>
      <trkpt lat="47.16807" lon="6.41984">
        <ele>817.2</ele>
      </trkpt>
      <trkpt lat="47.16763" lon="6.41961">
        <ele>812</ele>
      </trkpt>
      <trkpt lat="47.16749" lon="6.41953">
        <ele>808.6</ele>
      </trkpt>
      <trkpt lat="47.16775" lon="6.41915">
        <ele>812.9</ele>
      </trkpt>
      <trkpt lat="47.16877" lon="6.41787">
        <ele>819</ele>
      </trkpt>
      <trkpt lat="47.16954" lon="6.41695">
        <ele>821.8</ele>
      </trkpt>
      <trkpt lat="47.17008" lon="6.41642">
        <ele>824.7</ele>
      </trkpt>
      <trkpt lat="47.17038" lon="6.41604">
        <ele>825</ele>
      </trkpt>
      <trkpt lat="47.17061" lon="6.41545">
        <ele>822.7</ele>
      </trkpt>
      <trkpt lat="47.17069" lon="6.41511">
        <ele>822</ele>
      </trkpt>
      <trkpt lat="47.17072" lon="6.41462">
        <ele>818</ele>
      </trkpt>
      <trkpt lat="47.17071" lon="6.41451">
        <ele>817.1</ele>
      </trkpt>
      <trkpt lat="47.17051" lon="6.41445">
        <ele>816.7</ele>
      </trkpt>
      <trkpt lat="47.16881" lon="6.41367">
        <ele>806</ele>
      </trkpt>
      <trkpt lat="47.16593" lon="6.41232">
        <ele>792</ele>
      </trkpt>
      <trkpt lat="47.16556" lon="6.41214">
        <ele>795.2</ele>
      </trkpt>
      <trkpt lat="47.16542" lon="6.41204">
        <ele>795.9</ele>
      </trkpt>
      <trkpt lat="47.16669" lon="6.41031">
        <ele>783</ele>
      </trkpt>
      <trkpt lat="47.16758" lon="6.40899">
        <ele>773.4</ele>
      </trkpt>
      <trkpt lat="47.16771" lon="6.40874">
        <ele>772.3</ele>
      </trkpt>
      <trkpt lat="47.16784" lon="6.40844">
        <ele>771.3</ele>
      </trkpt>
      <trkpt lat="47.1681" lon="6.40794">
        <ele>765</ele>
      </trkpt>
      <trkpt lat="47.16838" lon="6.40713">
        <ele>751.5</ele>
      </trkpt>
      <trkpt lat="47.16847" lon="6.40672">
        <ele>749.6</ele>
      </trkpt>
      <trkpt lat="47.16853" lon="6.4065">
        <ele>744.2</ele>
      </trkpt>
      <trkpt lat="47.1686" lon="6.40625">
        <ele>741.7</ele>
      </trkpt>
      <trkpt lat="47.16866" lon="6.40607">
        <ele>740.7</ele>
      </trkpt>
      <trkpt lat="47.16897" lon="6.40604">
        <ele>738.4</ele>
      </trkpt>
      <trkpt lat="47.16922" lon="6.406">
        <ele>734</ele>
      </trkpt>
      <trkpt lat="47.17009" lon="6.40581">
        <ele>725.6</ele>
      </trkpt>
      <trkpt lat="47.17" lon="6.40574">
        <ele>725.5</ele>
      </trkpt>
      <trkpt lat="47.16975" lon="6.40555">
        <ele>727.1</ele>
      </trkpt>
      <trkpt lat="47.16957" lon="6.40539">
        <ele>727.2</ele>
      </trkpt>
      <trkpt lat="47.16916" lon="6.40503">
        <ele>728.7</ele>
      </trkpt>
      <trkpt lat="47.16889" lon="6.40472">
        <ele>729</ele>
      </trkpt>
      <trkpt lat="47.16863" lon="6.40454">
        <ele>729.3</ele>
      </trkpt>
      <trkpt lat="47.16824" lon="6.40444">
        <ele>732</ele>
      </trkpt>
      <trkpt lat="47.16801" lon="6.40449">
        <ele>736</ele>
      </trkpt>
      <trkpt lat="47.16773" lon="6.40448">
        <ele>738</ele>
      </trkpt>
      <trkpt lat="47.16759" lon="6.40442">
        <ele>738.2</ele>
      </trkpt>
      <trkpt lat="47.16744" lon="6.40415">
        <ele>739.2</ele>
      </trkpt>
      <trkpt lat="47.16723" lon="6.40352">
        <ele>739.8</ele>
      </trkpt>
      <trkpt lat="47.16705" lon="6.40313">
        <ele>737.1</ele>
      </trkpt>
      <trkpt lat="47.16682" lon="6.40261">
        <ele>738</ele>
      </trkpt>
      <trkpt lat="47.1662" lon="6.40195">
        <ele>739.7</ele>
      </trkpt>
      <trkpt lat="47.16588" lon="6.40154">
        <ele>742</ele>
      </trkpt>
      <trkpt lat="47.16557" lon="6.4013">
        <ele>743.2</ele>
      </trkpt>
      <trkpt lat="47.16521" lon="6.40095">
        <ele>743.5</ele>
      </trkpt>
      <trkpt lat="47.16495" lon="6.40073">
        <ele>744.1</ele>
      </trkpt>
      <trkpt lat="47.16429" lon="6.40022">
        <ele>744.9</ele>
      </trkpt>
      <trkpt lat="47.16363" lon="6.39978">
        <ele>751</ele>
      </trkpt>
      <trkpt lat="47.16335" lon="6.39956">
        <ele>751.3</ele>
      </trkpt>
      <trkpt lat="47.16306" lon="6.39935">
        <ele>756.9</ele>
      </trkpt>
      <trkpt lat="47.16272" lon="6.39909">
        <ele>755.8</ele>
      </trkpt>
      <trkpt lat="47.16239" lon="6.39883">
        <ele>757.9</ele>
      </trkpt>
      <trkpt lat="47.16236" lon="6.39848">
        <ele>758</ele>
      </trkpt>
      <trkpt lat="47.1622" lon="6.39844">
        <ele>757</ele>
      </trkpt>
      <trkpt lat="47.16197" lon="6.39834">
        <ele>756</ele>
      </trkpt>
      <trkpt lat="47.16135" lon="6.39795">
        <ele>755</ele>
      </trkpt>
      <trkpt lat="47.16109" lon="6.39766">
        <ele>756</ele>
      </trkpt>
      <trkpt lat="47.16091" lon="6.39741">
        <ele>755</ele>
      </trkpt>
      <trkpt lat="47.16077" lon="6.39704">
        <ele>753</ele>
      </trkpt>
      <trkpt lat="47.16042" lon="6.39704">
        <ele>753.8</ele>
      </trkpt>
      <trkpt lat="47.16021" lon="6.39692">
        <ele>753</ele>
      </trkpt>
      <trkpt lat="47.15992" lon="6.39661">
        <ele>752</ele>
      </trkpt>
      <trkpt lat="47.15959" lon="6.39623">
        <ele>757.2</ele>
      </trkpt>
      <trkpt lat="47.15936" lon="6.39597">
        <ele>759.3</ele>
      </trkpt>
      <trkpt lat="47.15919" lon="6.39575">
        <ele>761</ele>
      </trkpt>
      <trkpt lat="47.1589" lon="6.39544">
        <ele>765</ele>
      </trkpt>
      <trkpt lat="47.15865" lon="6.39526">
        <ele>766.5</ele>
      </trkpt>
      <trkpt lat="47.1583" lon="6.39503">
        <ele>769</ele>
      </trkpt>
      <trkpt lat="47.15759" lon="6.39471">
        <ele>772</ele>
      </trkpt>
      <trkpt lat="47.15729" lon="6.3945">
        <ele>771.6</ele>
      </trkpt>
      <trkpt lat="47.15607" lon="6.39355">
        <ele>766</ele>
      </trkpt>
      <trkpt lat="47.15547" lon="6.39312">
        <ele>762.4</ele>
      </trkpt>
      <trkpt lat="47.15455" lon="6.39237">
        <ele>759.5</ele>
      </trkpt>
      <trkpt lat="47.15419" lon="6.3921">
        <ele>762</ele>
      </trkpt>
      <trkpt lat="47.15375" lon="6.39174">
        <ele>762.6</ele>
      </trkpt>
      <trkpt lat="47.15403" lon="6.39109">
        <ele>753</ele>
      </trkpt>
      <trkpt lat="47.15418" lon="6.39074">
        <ele>746.2</ele>
      </trkpt>
      <trkpt lat="47.1543" lon="6.39049">
        <ele>743.3</ele>
      </trkpt>
      <trkpt lat="47.15456" lon="6.38988">
        <ele>737.6</ele>
      </trkpt>
      <trkpt lat="47.15421" lon="6.38928">
        <ele>737</ele>
      </trkpt>
      <trkpt lat="47.154" lon="6.38892">
        <ele>735.3</ele>
      </trkpt>
      <trkpt lat="47.15363" lon="6.38835">
        <ele>733.1</ele>
      </trkpt>
      <trkpt lat="47.15316" lon="6.38768">
        <ele>728.5</ele>
      </trkpt>
      <trkpt lat="47.15307" lon="6.38741">
        <ele>727</ele>
      </trkpt>
      <trkpt lat="47.15285" lon="6.38724">
        <ele>726</ele>
      </trkpt>
      <trkpt lat="47.15325" lon="6.38673">
        <ele>726.7</ele>
      </trkpt>
      <trkpt lat="47.15357" lon="6.38629">
        <ele>723</ele>
      </trkpt>
      <trkpt lat="47.15369" lon="6.38596">
        <ele>718</ele>
      </trkpt>
      <trkpt lat="47.1537" lon="6.38569">
        <ele>714</ele>
      </trkpt>
      <trkpt lat="47.15361" lon="6.38548">
        <ele>711.2</ele>
      </trkpt>
      <trkpt lat="47.15328" lon="6.38492">
        <ele>711</ele>
      </trkpt>
      <trkpt lat="47.15307" lon="6.38462">
        <ele>712</ele>
      </trkpt>
      <trkpt lat="47.15284" lon="6.38433">
        <ele>713.7</ele>
      </trkpt>
      <trkpt lat="47.15249" lon="6.38397">
        <ele>718.8</ele>
      </trkpt>
      <trkpt lat="47.15244" lon="6.38369">
        <ele>718</ele>
      </trkpt>
      <trkpt lat="47.15252" lon="6.38347">
        <ele>712.5</ele>
      </trkpt>
      <trkpt lat="47.1527" lon="6.38328">
        <ele>709.2</ele>
      </trkpt>
      <trkpt lat="47.15281" lon="6.38314">
        <ele>707.2</ele>
      </trkpt>
      <trkpt lat="47.15239" lon="6.38258">
        <ele>709.4</ele>
      </trkpt>
      <trkpt lat="47.1527" lon="6.38222">
        <ele>701</ele>
      </trkpt>
      <trkpt lat="47.15284" lon="6.38197">
        <ele>699.3</ele>
      </trkpt>
      <trkpt lat="47.15302" lon="6.38175">
        <ele>698.6</ele>
      </trkpt>
      <trkpt lat="47.15328" lon="6.38143">
        <ele>695.8</ele>
      </trkpt>
      <trkpt lat="47.15396" lon="6.38061">
        <ele>686.7</ele>
      </trkpt>
      <trkpt lat="47.15452" lon="6.3799">
        <ele>683.3</ele>
      </trkpt>
      <trkpt lat="47.15472" lon="6.37967">
        <ele>684.2</ele>
      </trkpt>
      <trkpt lat="47.1544" lon="6.37924">
        <ele>683.2</ele>
      </trkpt>
      <trkpt lat="47.15385" lon="6.37835">
        <ele>678</ele>
      </trkpt>
      <trkpt lat="47.15347" lon="6.37765">
        <ele>674.2</ele>
      </trkpt>
      <trkpt lat="47.15348" lon="6.37747">
        <ele>673.6</ele>
      </trkpt>
      <trkpt lat="47.15347" lon="6.37728">
        <ele>674</ele>
      </trkpt>
      <trkpt lat="47.15351" lon="6.37709">
        <ele>674.6</ele>
      </trkpt>
      <trkpt lat="47.15372" lon="6.37653">
        <ele>674</ele>
      </trkpt>
      <trkpt lat="47.15399" lon="6.37619">
        <ele>673.7</ele>
      </trkpt>
      <trkpt lat="47.15425" lon="6.37571">
        <ele>671</ele>
      </trkpt>
      <trkpt lat="47.15459" lon="6.3754">
        <ele>670.4</ele>
      </trkpt>
      <trkpt lat="47.15485" lon="6.37519">
        <ele>669</ele>
      </trkpt>
      <trkpt lat="47.15523" lon="6.37485">
        <ele>665.6</ele>
      </trkpt>
      <trkpt lat="47.15607" lon="6.374">
        <ele>656</ele>
      </trkpt>
      <trkpt lat="47.15607" lon="6.37384">
        <ele>654</ele>
      </trkpt>
      <trkpt lat="47.15582" lon="6.37379">
        <ele>656.7</ele>
      </trkpt>
      <trkpt lat="47.15503" lon="6.3735">
        <ele>657.6</ele>
      </trkpt>
      <trkpt lat="47.15428" lon="6.37325">
        <ele>661.5</ele>
      </trkpt>
      <trkpt lat="47.15385" lon="6.37319">
        <ele>664.2</ele>
      </trkpt>
      <trkpt lat="47.15277" lon="6.37323">
        <ele>669</ele>
      </trkpt>
      <trkpt lat="47.15194" lon="6.37324">
        <ele>677</ele>
      </trkpt>
      <trkpt lat="47.1516" lon="6.37328">
        <ele>680</ele>
      </trkpt>
      <trkpt lat="47.15119" lon="6.37332">
        <ele>683</ele>
      </trkpt>
      <trkpt lat="47.15094" lon="6.37325">
        <ele>684.3</ele>
      </trkpt>
      <trkpt lat="47.15085" lon="6.37312">
        <ele>683.8</ele>
      </trkpt>
      <trkpt lat="47.15083" lon="6.37293">
        <ele>687.2</ele>
      </trkpt>
      <trkpt lat="47.15093" lon="6.37263">
        <ele>683.4</ele>
      </trkpt>
      <trkpt lat="47.15111" lon="6.37239">
        <ele>683</ele>
      </trkpt>
      <trkpt lat="47.15144" lon="6.37211">
        <ele>680</ele>
      </trkpt>
      <trkpt lat="47.15179" lon="6.37158">
        <ele>679.4</ele>
      </trkpt>
      <trkpt lat="47.15198" lon="6.37142">
        <ele>679</ele>
      </trkpt>
      <trkpt lat="47.15211" lon="6.37127">
        <ele>679</ele>
      </trkpt>
      <trkpt lat="47.15228" lon="6.37121">
        <ele>678</ele>
      </trkpt>
      <trkpt lat="47.15261" lon="6.37152">
        <ele>671.9</ele>
      </trkpt>
      <trkpt lat="47.15281" lon="6.37161">
        <ele>671.4</ele>
      </trkpt>
      <trkpt lat="47.15298" lon="6.37136">
        <ele>671.1</ele>
      </trkpt>
      <trkpt lat="47.15336" lon="6.37102">
        <ele>669</ele>
      </trkpt>
      <trkpt lat="47.15355" lon="6.37086">
        <ele>666.8</ele>
      </trkpt>
      <trkpt lat="47.15384" lon="6.37058">
        <ele>667</ele>
      </trkpt>
      <trkpt lat="47.15405" lon="6.37039">
        <ele>668</ele>
      </trkpt>
      <trkpt lat="47.15423" lon="6.37012">
        <ele>666.9</ele>
      </trkpt>
      <trkpt lat="47.15422" lon="6.36982">
        <ele>669.8</ele>
      </trkpt>
      <trkpt lat="47.15433" lon="6.36961">
        <ele>671.2</ele>
      </trkpt>
      <trkpt lat="47.15455" lon="6.36956">
        <ele>671.4</ele>
      </trkpt>
      <trkpt lat="47.15481" lon="6.36954">
        <ele>671.4</ele>
      </trkpt>
      <trkpt lat="47.15506" lon="6.3696">
        <ele>670.8</ele>
      </trkpt>
      <trkpt lat="47.15541" lon="6.3699">
        <ele>669.7</ele>
      </trkpt>
      <trkpt lat="47.15561" lon="6.36995">
        <ele>669.1</ele>
      </trkpt>
      <trkpt lat="47.15579" lon="6.36991">
        <ele>668.3</ele>
      </trkpt>
      <trkpt lat="47.1556" lon="6.36914">
        <ele>674.7</ele>
      </trkpt>
      <trkpt lat="47.15506" lon="6.36711">
        <ele>681</ele>
      </trkpt>
      <trkpt lat="47.15484" lon="6.36627">
        <ele>685</ele>
      </trkpt>
      <trkpt lat="47.15498" lon="6.36614">
        <ele>685</ele>
      </trkpt>
      <trkpt lat="47.15519" lon="6.36589">
        <ele>684.7</ele>
      </trkpt>
      <trkpt lat="47.15523" lon="6.36552">
        <ele>684.5</ele>
      </trkpt>
      <trkpt lat="47.15537" lon="6.3652">
        <ele>684.2</ele>
      </trkpt>
      <trkpt lat="47.15569" lon="6.36466">
        <ele>682</ele>
      </trkpt>
      <trkpt lat="47.15565" lon="6.36432">
        <ele>681</ele>
      </trkpt>
      <trkpt lat="47.15556" lon="6.36413">
        <ele>679.3</ele>
      </trkpt>
      <trkpt lat="47.15562" lon="6.364">
        <ele>679.1</ele>
      </trkpt>
      <trkpt lat="47.15579" lon="6.364">
        <ele>679</ele>
      </trkpt>
      <trkpt lat="47.15639" lon="6.36401">
        <ele>675.7</ele>
      </trkpt>
      <trkpt lat="47.15685" lon="6.36368">
        <ele>667.4</ele>
      </trkpt>
      <trkpt lat="47.15694" lon="6.36337">
        <ele>666.8</ele>
      </trkpt>
      <trkpt lat="47.15676" lon="6.36294">
        <ele>664.6</ele>
      </trkpt>
      <trkpt lat="47.15666" lon="6.36265">
        <ele>669.7</ele>
      </trkpt>
      <trkpt lat="47.1566" lon="6.3622">
        <ele>667.3</ele>
      </trkpt>
      <trkpt lat="47.15664" lon="6.36185">
        <ele>661</ele>
      </trkpt>
      <trkpt lat="47.15647" lon="6.36051">
        <ele>653</ele>
      </trkpt>
      <trkpt lat="47.1565" lon="6.36032">
        <ele>653.2</ele>
      </trkpt>
      <trkpt lat="47.15547" lon="6.35878">
        <ele>646</ele>
      </trkpt>
      <trkpt lat="47.15502" lon="6.35783">
        <ele>642</ele>
      </trkpt>
      <trkpt lat="47.15477" lon="6.3569">
        <ele>644.1</ele>
      </trkpt>
      <trkpt lat="47.15431" lon="6.35459">
        <ele>643</ele>
      </trkpt>
      <trkpt lat="47.15416" lon="6.35333">
        <ele>645</ele>
      </trkpt>
      <trkpt lat="47.15391" lon="6.35341">
        <ele>647.3</ele>
      </trkpt>
      <trkpt lat="47.15304" lon="6.35261">
        <ele>649</ele>
      </trkpt>
      <trkpt lat="47.15241" lon="6.35215">
        <ele>651</ele>
      </trkpt>
    </trkseg>
  </trk>
</gpx>